Moapa Valley, Nevada Weather observations

Data are for 10 minute period ending at time listed.
 Day   Time   Solar   Ave.   Ave.  Ave.  Vector  Max.   Baro.   Total    
  of    of     Rad.   Air    Rel.  Wind   Wind   Wind  Press.  Precip.   
Year   Day            Temp.  Hum.  Speed  Dir.   Gust                    
2016   (PST)  Kw/m2    F      %     mph   deg.    mph    mb.     in.     
-------------------------------------------------------------------------
 151   14:40   0.26   91.8    17    3.5   324     6.7   961.7    0.00 
 151   14:50   0.39   89.9    19    8.2   332    20.6   961.6    0.00 
 151   15:00   0.38   89.8    17    7.3   334    16.4   961.5    0.00 
 151   15:10   0.34   91.7    14    5.0    24     8.8   961.2    0.00 
 151   15:20   0.34   90.1    19    4.1   343     6.3   961.1    0.00 
 151   15:30   0.57   91.4    18    4.9   342     7.8   961.0    0.00 
 151   15:40   0.28   92.1    16    2.7   309     6.3   961.0    0.00 
 151   15:50   0.21   91.5    16    4.3   334     7.1   960.9    0.00 
 151   16:00   0.16   90.7    15    5.2    38     8.8   960.9    0.00 
 151   16:10   0.24   91.4    15    3.5    58     6.7   960.7    0.00 
 151   16:20   0.23   92.0    15    5.3    67    11.7   960.6    0.00 
 151   16:30   0.26   90.7    18    4.1    19     8.5   960.6    0.00 
 151   16:40   0.20   90.1    19    4.4    16     8.1   960.5    0.00 
 151   16:50   0.16   89.9    16    6.7     2    10.3   960.5    0.00 
 151   17:00   0.21   90.4    16    5.1     8     8.8   960.5    0.00 
 151   17:10   0.38   91.4    16    5.0    26     9.9   960.3    0.00 
 151   17:20   0.31   92.9    14    4.9    54     8.5   960.1    0.00 
 151   17:30   0.28   93.0    14    4.4    53     7.8   960.1    0.00 
 151   17:40   0.28   93.1    14    3.8    68     7.4   960.1    0.00 
 151   17:50   0.20   93.0    13    4.1    54     6.3   960.1    0.00 
 151   18:00   0.08   92.3    13    4.0    75     6.7   960.1    0.00 
 151   18:10   0.05   91.8    13    3.2    60     5.3   960.1    0.00 
 151   18:20   0.06   91.6    13    3.5    55     4.9   960.1    0.00 
 151   18:30   0.03   89.9    15    3.7   105     6.3   960.2    0.00 
 151   18:40   0.01   89.1    15    2.0   139     3.8   960.3    0.00 
 151   18:50   0.01   88.2    16    1.5   257     2.1   960.4    0.00 
 151   19:00   0.00   86.7    16    2.7   297     3.5   960.5    0.00 
 151   19:10   0.00   83.2    24    2.2   346     3.8   960.5    0.00 
 151   19:20   0.00   83.6    19    2.3    22     3.5   960.5    0.00 
 151   19:30   0.00   82.4    26    0.8    77     2.4   960.5    0.00 
 151   19:40   0.00   79.9    28    0.3   271     1.3   960.4    0.00 
 151   19:50   0.00   79.6    25    1.8   288     3.1   960.5    0.00 
 151   20:00   0.00   77.7    24    1.5   232     2.4   960.6    0.00 
 151   20:10   0.00   76.7    29    1.2   266     2.8   960.7    0.00 
 151   20:20   0.00   75.5    28    2.9   359     3.8   960.8    0.00 
 151   20:30   0.00   74.4    32    3.0   359     4.2   961.0    0.00 
 151   20:40   0.00   73.9    30    2.2   272     3.8   961.2    0.00 
 151   20:50   0.00   75.1    28    1.4   229     2.8   961.3    0.00 
 151   21:00   0.00   75.1    28    2.3   354     3.5   961.3    0.00 
 151   21:10   0.00   74.4    30    2.6     4     3.5   961.3    0.00 
 151   21:20   0.00   71.1    37    2.4   332     3.1   961.2    0.00 
 151   21:30   0.00   73.8    28    3.1   334     3.5   961.3    0.00 
 151   21:40   0.00   74.0    29    2.0   336     3.1   961.3    0.00 
 151   21:50   0.00   72.8    30    1.8   279     3.5   961.2    0.00 
 151   22:00   0.00   70.4    34    0.3    82     1.7   961.2    0.00 
 151   22:10   0.00   69.9    39    1.0   313     2.1   961.2    0.00 
 151   22:20   0.00   68.6    39    1.2   203     2.8   961.2    0.00 
 151   22:30   0.00   68.7    37    1.2   355     4.2   961.2    0.00 
 151   22:40   0.00   69.7    34    1.7   326     2.8   961.2    0.00 
 151   22:50   0.00   71.4    30    2.2   326     2.8   961.2    0.00 
 151   23:00   0.00   69.5    39    0.8   282     2.1   961.2    0.00 
 151   23:10   0.00   69.5    34    1.9   290     3.8   961.2    0.00 
 151   23:20   0.00   72.4    29    3.4   273     4.9   961.2    0.00 
 151   23:30   0.00   71.6    32    1.9    64     3.8   961.2    0.00 
 151   23:40   0.00   74.8    26    1.8   232     3.5   961.2    0.00 
 151   23:50   0.00   74.8    25    2.4   219     4.2   961.2    0.00 
 152    0:00   0.00   77.1    22    3.3   227     5.6   961.2    0.00 
 152    0:10   0.00   78.1    22    3.9   293    11.0   961.3    0.00 
 152    0:20   0.00   79.3    22    5.3   334     8.5   961.4    0.00 
 152    0:30   0.00   78.2    23    4.9   325     8.8   961.5    0.00 
 152    0:40   0.00   76.7    24    4.1   322     7.1   961.5    0.00 
 152    0:50   0.00   74.6    25    3.6   296     5.3   961.6    0.00 
 152    1:00   0.00   73.9    26    3.6   296     4.9   961.6    0.00 
 152    1:10   0.00   72.8    28    2.9   311     4.6   961.6    0.00 
 152    1:20   0.00   72.1    28    1.3   254     2.4   961.6    0.00 
 152    1:30   0.00   70.1    31    1.9   265     3.8   961.7    0.00 
 152    1:40   0.00   69.3    31    2.7   271     4.2   961.6    0.00 
 152    1:50   0.00   68.7    32    2.8   269     3.8   961.7    0.00 
 152    2:00   0.00   69.0    33    2.5   261     3.8   961.8    0.00 
 152    2:10   0.00   66.5    38    2.1   235     3.8   961.8    0.00 
 152    2:20   0.00   67.0    37    0.8   239     2.8   961.8    0.00 
 152    2:30   0.00   66.1    37    2.1   320     3.5   961.9    0.00 
 152    2:40   0.00   67.1    35    3.3   285     4.9   961.9    0.00 
 152    2:50   0.00   65.1    42    1.8   357     3.5   961.9    0.00 
 152    3:00   0.00   63.3    46    1.5   202     2.8   962.0    0.00 
 152    3:10   0.00   63.4    42    1.1   284     2.4   962.1    0.00 
 152    3:20   0.00   63.1    45    2.5   309     4.9   962.1    0.00 
 152    3:30   0.00   63.0    47    2.3     4     5.3   962.1    0.00 
 152    3:40   0.00   65.7    41    1.8   354     3.8   962.1    0.00 
 152    3:50   0.00   67.0    38    1.8   293     2.8   962.2    0.00 
 152    4:00   0.00   66.5    36    2.3   333     3.5   962.3    0.00 
 152    4:10   0.00   66.0    39    1.8   282     3.1   962.3    0.00 
 152    4:20   0.00   64.3    41    2.0   248     3.8   962.3    0.00 
 152    4:30   0.01   62.3    43    1.2   216     2.8   962.4    0.00 
 152    4:40   0.02   62.1    50    1.8   130     2.8   962.6    0.00 
 152    4:50   0.05   62.7    45    2.6   204     3.8   962.7    0.00 
 152    5:00   0.07   65.0    41    2.1   224     3.8   962.9    0.00 
 152    5:10   0.10   65.6    48    0.8   237     2.1   963.0    0.00 
 152    5:20   0.13   66.4    47    1.7   316     2.8   963.1    0.00 
 152    5:30   0.16   69.3    43    2.1   277     3.1   963.2    0.00 
 152    5:40   0.20   71.6    40    2.4   300     3.8   963.2    0.00 
 152    5:50   0.23   73.5    37    2.8   285     4.2   963.3    0.00 
 152    6:00   0.27   75.2    39    2.3   289     3.5   963.3    0.00 
 152    6:10   0.31   76.9    38    1.2   337     2.8   963.4    0.00 
 152    6:20   0.35   77.6    43    1.7   151     2.4   963.6    0.00 
 152    6:30   0.40   78.9    40    0.5   208     2.1   963.6    0.00 
 152    6:40   0.44   81.2    32    1.1   327     3.5   963.7    0.00 
 152    6:50   0.48   81.7    30    2.9   337     5.3   963.7    0.00 
 152    7:00   0.52   81.4    29    3.3   339     4.6   963.7    0.00 
 152    7:10   0.57   82.2    29    4.0   341     6.7   963.8    0.00 
 152    7:20   0.61   82.5    29    4.7   318     6.7   963.8    0.00 
 152    7:30   0.65   83.3    28    4.7   317     7.4   963.8    0.00 
 152    7:40   0.69   85.0    25    4.4   292     6.3   963.8    0.00 
 152    7:50   0.73   86.4    24    3.9   308     7.1   963.6    0.00 
 152    8:00   0.77   86.4    24    5.4   304     8.5   963.6    0.00 
 152    8:10   0.81   86.8    22    5.2   321    10.3   963.5    0.00 
 152    8:20   0.81   88.4    20    4.2   287     7.8   963.4    0.00 
 152    8:30   0.86   89.3    21    5.1   355    11.3   963.3    0.00 
 152    8:40   0.89   88.2    21    7.0     6    12.4   963.3    0.00 
 152    8:50   0.93   88.8    19    8.2     8    12.1   963.3    0.00 
 152    9:00   0.95   89.0    20    7.6     5    12.8   963.2    0.00 
 152    9:10   1.00   89.9    18    7.6    14    11.7   963.1    0.00 
 152    9:20   1.01   89.8    20    7.6   347    11.7   963.0    0.00 
 152    9:30   1.04   90.4    18    9.2    15    12.4   962.9    0.00 
 152    9:40   1.07   90.9    17    9.8    15    17.4   962.9    0.00 
 152    9:50   1.09   90.3    18   10.2   352    15.3   962.7    0.00 
 152   10:00   1.09   90.5    19    8.7   350    15.6   962.7    0.00 
 152   10:10   1.13   90.9    19    6.3   353    10.6   962.7    0.00 
 152   10:20   1.14   91.1    20    6.6   356    12.8   962.6    0.00 
 152   10:30   1.17   91.6    18    7.7     5    12.8   962.5    0.00 
 152   10:40   1.05   91.0    20    6.1   342    11.0   962.4    0.00 
 152   10:50   1.15   92.2    19    4.9   322    11.0   962.3    0.00 
 152   11:00   1.19   92.6    18    8.1   292    14.2   962.2    0.00 
 152   11:10   1.19   93.3    19    6.4   295    14.6   962.0    0.00 
 152   11:20   1.20   92.2    21    4.8   335     8.5   962.0    0.00 
 152   11:30   1.20   93.4    18    3.5   189     8.1   961.9    0.00 
 152   11:40   1.20   93.7    18    3.4   320     8.1   961.8    0.00 
 152   11:50   1.20   94.3    17    3.5   245     6.3   961.7    0.00 
 152   12:00   1.20   93.4    23    4.0   129     6.0   961.5    0.00 
 152   12:10   1.17   93.3    21    3.7   110     6.0   961.3    0.00 
 152   12:20   1.19   94.0    23    3.3    60     6.7   961.2    0.00 
 152   12:30   1.18   94.9    19    6.5   295    11.7   961.1    0.00 
 152   12:40   1.17   94.1    20    5.1   289    11.0   961.0    0.00 
 152   12:50   1.15   96.2    15    4.4   235     7.4   960.8    0.00 
 152   13:00   1.14   95.5    16    6.8   290    11.3   960.6    0.00 
 152   13:10   1.12   95.8    17    4.8   304    10.3   960.5    0.00 
 152   13:20   1.10   95.5    15    5.0   269     9.6   960.4    0.00 
 152   13:30   1.08   96.4    16    2.8    68     6.7   960.3    0.00 
 152   13:40   1.06   96.2    16    3.4    45     8.1   960.1    0.00 
 152   13:50   1.04   97.3    17    2.6   269     5.6   960.0    0.00 
 152   14:00   1.01   98.0    15    3.0   282     7.4   959.8    0.00 
 152   14:10   0.98   96.4    16    3.6   333    11.3   959.7    0.00 
 152   14:20   0.95   94.8    18    2.9   167     7.8   959.5    0.00 
 152   14:30   0.93   97.2    13    3.9   272     6.3   959.3    0.00 

Return to Moapa Valley graphs page.


Western Regional Climate Center,wrcc@dri.edu